Time,TemperatureF,DewpointF,PressureIn,WindDirection,WindDirectionDegrees,WindSpeedMPH,WindSpeedGustMPH,Humidity,HourlyPrecipIn,Conditions,Clouds,dailyrainin,SolarRadiationWatts/m^2,SoftwareType,DateUTC
2013-11-26 00:22:00,31.0,13.0,-100.00,ENE,59,5.0,8.0,46,0.00,,,0.00,0.000000,,2013-11-26 08:22:00,
2013-11-26 00:32:00,31.0,13.0,-100.00,ENE,59,5.0,8.0,46,0.00,,,0.00,0.000000,,2013-11-26 08:32:00,
2013-11-26 00:42:00,31.0,13.0,-100.00,ENE,59,5.0,8.0,46,0.00,,,0.00,0.000000,,2013-11-26 08:42:00,
2013-11-26 00:52:00,31.0,13.0,-100.00,ENE,59,5.0,8.0,46,0.00,,,0.00,0.000000,,2013-11-26 08:52:00,
2013-11-26 01:21:00,29.0,14.0,-100.00,ENE,59,6.0,10.0,53,0.00,,,0.00,0.000000,,2013-11-26 09:21:00,
2013-11-26 01:33:00,29.0,14.0,-100.00,ENE,59,6.0,10.0,53,0.00,,,0.00,0.000000,,2013-11-26 09:33:00,
2013-11-26 01:43:00,29.0,14.0,-100.00,ENE,59,6.0,10.0,53,0.00,,,0.00,0.000000,,2013-11-26 09:43:00,
2013-11-26 01:53:00,29.0,14.0,-100.00,ENE,59,6.0,10.0,53,0.00,,,0.00,0.000000,,2013-11-26 09:53:00,
2013-11-26 02:23:00,28.0,14.0,-100.00,ENE,74,5.0,7.0,55,0.00,,,0.00,0.000000,,2013-11-26 10:23:00,
2013-11-26 02:33:00,28.0,14.0,-100.00,ENE,74,5.0,7.0,55,0.00,,,0.00,0.000000,,2013-11-26 10:33:00,
2013-11-26 02:43:00,28.0,14.0,-100.00,ENE,74,5.0,7.0,55,0.00,,,0.00,0.000000,,2013-11-26 10:43:00,
2013-11-26 02:53:00,28.0,14.0,-100.00,ENE,74,5.0,7.0,55,0.00,,,0.00,0.000000,,2013-11-26 10:53:00,
2013-11-26 03:23:00,27.0,13.0,-100.00,ENE,63,6.0,8.0,56,0.00,,,0.00,0.000000,,2013-11-26 11:23:00,
2013-11-26 03:33:00,27.0,13.0,-100.00,ENE,63,6.0,8.0,56,0.00,,,0.00,0.000000,,2013-11-26 11:33:00,
2013-11-26 03:42:00,27.0,13.0,-100.00,ENE,63,6.0,8.0,56,0.00,,,0.00,0.000000,,2013-11-26 11:42:00,
2013-11-26 03:52:00,27.0,13.0,-100.00,ENE,63,6.0,8.0,56,0.00,,,0.00,0.000000,,2013-11-26 11:52:00,
2013-11-26 04:22:00,26.0,13.0,-100.00,East,82,4.0,7.0,58,0.00,,,0.00,0.000000,,2013-11-26 12:22:00,
2013-11-26 04:32:00,26.0,13.0,-100.00,East,82,4.0,7.0,58,0.00,,,0.00,0.000000,,2013-11-26 12:32:00,
2013-11-26 04:42:00,26.0,13.0,-100.00,East,82,4.0,7.0,58,0.00,,,0.00,0.000000,,2013-11-26 12:42:00,
2013-11-26 04:52:00,26.0,13.0,-100.00,East,82,4.0,7.0,58,0.00,,,0.00,0.000000,,2013-11-26 12:52:00,
2013-11-26 05:21:00,25.0,13.0,-100.00,ENE,72,6.0,8.0,60,0.00,,,0.00,0.000000,,2013-11-26 13:21:00,
2013-11-26 05:32:00,25.0,13.0,-100.00,ENE,72,6.0,8.0,60,0.00,,,0.00,0.000000,,2013-11-26 13:32:00,
2013-11-26 05:42:00,25.0,13.0,-100.00,ENE,72,6.0,8.0,60,0.00,,,0.00,0.000000,,2013-11-26 13:42:00,
2013-11-26 05:52:00,25.0,13.0,-100.00,ENE,72,6.0,8.0,60,0.00,,,0.00,0.000000,,2013-11-26 13:52:00,
2013-11-26 06:21:00,24.0,13.0,-100.00,ENE,75,4.0,7.0,62,0.00,,,-99.99,0.000000,,2013-11-26 14:21:00,
2013-11-26 06:32:00,24.0,13.0,-100.00,ENE,75,4.0,7.0,62,0.00,,,-99.99,0.000000,,2013-11-26 14:32:00,
2013-11-26 06:42:00,24.0,13.0,-100.00,ENE,75,4.0,7.0,62,0.00,,,-99.99,0.000000,,2013-11-26 14:42:00,
2013-11-26 06:52:00,24.0,13.0,-100.00,ENE,75,4.0,7.0,62,0.00,,,-99.99,0.000000,,2013-11-26 14:52:00,
2013-11-26 07:21:00,23.0,14.0,-100.00,ENE,74,4.0,7.0,68,0.00,,,0.00,0.000000,,2013-11-26 15:21:00,
2013-11-26 07:33:00,23.0,14.0,-100.00,ENE,74,4.0,7.0,68,0.00,,,0.00,0.000000,,2013-11-26 15:33:00,
2013-11-26 07:43:00,23.0,14.0,-100.00,ENE,74,4.0,7.0,68,0.00,,,0.00,0.000000,,2013-11-26 15:43:00,
2013-11-26 07:54:00,23.0,14.0,-100.00,ENE,74,4.0,7.0,68,0.00,,,0.00,0.000000,,2013-11-26 15:54:00,
2013-11-26 08:23:00,24.0,14.0,-100.00,ENE,69,5.0,7.0,65,0.00,,,-99.99,19.000000,,2013-11-26 16:23:00,
2013-11-26 08:34:00,24.0,14.0,-100.00,ENE,69,5.0,7.0,65,0.00,,,-99.99,19.000000,,2013-11-26 16:34:00,
2013-11-26 08:43:00,24.0,14.0,-100.00,ENE,69,5.0,7.0,65,0.00,,,-99.99,19.000000,,2013-11-26 16:43:00,
2013-11-26 08:54:00,24.0,14.0,-100.00,ENE,69,5.0,7.0,65,0.00,,,-99.99,19.000000,,2013-11-26 16:54:00,
2013-11-26 09:22:00,32.0,16.0,-100.00,East,89,3.0,5.0,52,0.00,,,0.00,149.000000,,2013-11-26 17:22:00,
2013-11-26 09:33:00,32.0,16.0,-100.00,East,89,3.0,5.0,52,0.00,,,0.00,149.000000,,2013-11-26 17:33:00,
2013-11-26 09:42:00,32.0,16.0,-100.00,East,89,3.0,5.0,52,0.00,,,0.00,149.000000,,2013-11-26 17:42:00,
2013-11-26 09:52:00,32.0,16.0,-100.00,East,89,3.0,5.0,52,0.00,,,0.00,149.000000,,2013-11-26 17:52:00,
2013-11-26 10:21:00,37.0,18.0,-100.00,SE,138,2.0,5.0,46,0.00,,,0.00,127.000000,,2013-11-26 18:21:00,
2013-11-26 10:32:00,37.0,18.0,-100.00,SE,138,2.0,5.0,46,0.00,,,0.00,127.000000,,2013-11-26 18:32:00,
2013-11-26 10:42:00,37.0,18.0,-100.00,SE,138,2.0,5.0,46,0.00,,,0.00,127.000000,,2013-11-26 18:42:00,
2013-11-26 10:53:00,37.0,18.0,-100.00,SE,138,2.0,5.0,46,0.00,,,0.00,127.000000,,2013-11-26 18:53:00,
2013-11-26 11:21:00,46.0,19.0,-100.00,SW,214,1.0,5.0,34,0.00,,,0.00,380.000000,,2013-11-26 19:21:00,
2013-11-26 11:32:00,46.0,19.0,-100.00,SW,214,1.0,5.0,34,0.00,,,0.00,380.000000,,2013-11-26 19:32:00,
2013-11-26 11:42:00,46.0,19.0,-100.00,SW,214,1.0,5.0,34,0.00,,,0.00,380.000000,,2013-11-26 19:42:00,
2013-11-26 12:22:00,46.0,21.0,-100.00,WSW,246,3.0,5.0,36,0.00,,,0.00,429.000000,,2013-11-26 20:22:00,
2013-11-26 12:32:00,46.0,21.0,-100.00,WSW,246,3.0,5.0,36,0.00,,,0.00,429.000000,,2013-11-26 20:32:00,
2013-11-26 12:42:00,46.0,21.0,-100.00,WSW,246,3.0,5.0,36,0.00,,,0.00,429.000000,,2013-11-26 20:42:00,
2013-11-26 12:52:00,46.0,21.0,-100.00,WSW,246,3.0,5.0,36,0.00,,,0.00,429.000000,,2013-11-26 20:52:00,
2013-11-26 13:22:00,44.0,17.0,-100.00,SW,236,3.0,7.0,34,0.00,,,0.00,315.000000,,2013-11-26 21:22:00,
2013-11-26 13:34:00,44.0,17.0,-100.00,SW,236,3.0,7.0,34,0.00,,,0.00,315.000000,,2013-11-26 21:34:00,
2013-11-26 13:43:00,44.0,17.0,-100.00,SW,236,3.0,7.0,34,0.00,,,0.00,315.000000,,2013-11-26 21:43:00,
2013-11-26 13:53:00,44.0,17.0,-100.00,SW,236,3.0,7.0,34,0.00,,,0.00,315.000000,,2013-11-26 21:53:00,
2013-11-26 14:23:00,46.0,19.0,-100.00,West,280,3.0,5.0,34,0.00,,,0.00,276.000000,,2013-11-26 22:23:00,
2013-11-26 14:33:00,46.0,19.0,-100.00,West,280,3.0,5.0,34,0.00,,,0.00,276.000000,,2013-11-26 22:33:00,
2013-11-26 14:43:00,46.0,19.0,-100.00,West,280,3.0,5.0,34,0.00,,,0.00,276.000000,,2013-11-26 22:43:00,
2013-11-26 14:53:00,46.0,19.0,-100.00,West,280,3.0,5.0,34,0.00,,,0.00,276.000000,,2013-11-26 22:53:00,
2013-11-26 15:22:00,49.0,20.0,-100.00,West,275,1.0,6.0,32,0.00,,,0.00,271.000000,,2013-11-26 23:22:00,
2013-11-26 15:33:00,49.0,20.0,-100.00,West,275,1.0,6.0,32,0.00,,,0.00,271.000000,,2013-11-26 23:33:00,
2013-11-26 15:43:00,49.0,20.0,-100.00,West,275,1.0,6.0,32,0.00,,,0.00,271.000000,,2013-11-26 23:43:00,
2013-11-26 15:53:00,49.0,20.0,-100.00,West,275,1.0,6.0,32,0.00,,,0.00,271.000000,,2013-11-26 23:53:00,
2013-11-26 16:21:00,45.0,19.0,-100.00,WNW,302,3.0,5.0,35,0.00,,,0.00,164.000000,,2013-11-27 00:21:00,
2013-11-26 16:32:00,45.0,19.0,-100.00,WNW,302,3.0,5.0,35,0.00,,,0.00,164.000000,,2013-11-27 00:32:00,
2013-11-26 16:42:00,45.0,19.0,-100.00,WNW,302,3.0,5.0,35,0.00,,,0.00,164.000000,,2013-11-27 00:42:00,
2013-11-26 16:52:00,45.0,19.0,-100.00,WNW,302,3.0,5.0,35,0.00,,,0.00,164.000000,,2013-11-27 00:52:00,
2013-11-26 17:21:00,40.0,18.0,-100.00,WNW,295,2.0,4.0,41,0.00,,,0.00,13.000000,,2013-11-27 01:21:00,
2013-11-26 17:32:00,40.0,18.0,-100.00,WNW,295,2.0,4.0,41,0.00,,,0.00,13.000000,,2013-11-27 01:32:00,
2013-11-26 17:42:00,40.0,18.0,-100.00,WNW,295,2.0,4.0,41,0.00,,,0.00,13.000000,,2013-11-27 01:42:00,
2013-11-26 17:52:00,40.0,18.0,-100.00,WNW,295,2.0,4.0,41,0.00,,,0.00,13.000000,,2013-11-27 01:52:00,
2013-11-26 18:21:00,38.0,20.0,-100.00,ESE,118,2.0,3.0,47,0.00,,,0.00,0.000000,,2013-11-27 02:21:00,
2013-11-26 18:32:00,38.0,20.0,-100.00,ESE,118,2.0,3.0,47,0.00,,,0.00,0.000000,,2013-11-27 02:32:00,
2013-11-26 18:42:00,38.0,20.0,-100.00,ESE,118,2.0,3.0,47,0.00,,,0.00,0.000000,,2013-11-27 02:42:00,
2013-11-26 18:52:00,38.0,20.0,-100.00,ESE,118,2.0,3.0,47,0.00,,,0.00,0.000000,,2013-11-27 02:52:00,
2013-11-26 19:21:00,36.0,21.0,-100.00,ESE,121,1.0,4.0,53,0.00,,,0.00,0.000000,,2013-11-27 03:21:00,
2013-11-26 19:34:00,36.0,21.0,-100.00,ESE,121,1.0,4.0,53,0.00,,,0.00,0.000000,,2013-11-27 03:34:00,
2013-11-26 19:44:00,36.0,21.0,-100.00,ESE,121,1.0,4.0,53,0.00,,,0.00,0.000000,,2013-11-27 03:44:00,
2013-11-26 19:53:00,36.0,21.0,-100.00,ESE,121,1.0,4.0,53,0.00,,,0.00,0.000000,,2013-11-27 03:53:00,
2013-11-26 20:23:00,31.0,20.0,-100.00,East,84,3.0,4.0,62,0.00,,,0.00,0.000000,,2013-11-27 04:23:00,
2013-11-26 20:33:00,31.0,20.0,-100.00,East,84,3.0,4.0,62,0.00,,,0.00,0.000000,,2013-11-27 04:33:00,
2013-11-26 20:43:00,31.0,20.0,-100.00,East,84,3.0,4.0,62,0.00,,,0.00,0.000000,,2013-11-27 04:43:00,
2013-11-26 20:52:00,31.0,20.0,-100.00,East,84,3.0,4.0,62,0.00,,,0.00,0.000000,,2013-11-27 04:52:00,
2013-11-26 21:22:00,31.0,19.0,-100.00,East,84,3.0,4.0,61,0.00,,,0.00,0.000000,,2013-11-27 05:22:00,
2013-11-26 21:33:00,31.0,19.0,-100.00,East,84,3.0,4.0,61,0.00,,,0.00,0.000000,,2013-11-27 05:33:00,
2013-11-26 21:42:00,31.0,19.0,-100.00,East,84,3.0,4.0,61,0.00,,,0.00,0.000000,,2013-11-27 05:42:00,
2013-11-26 21:53:00,31.0,19.0,-100.00,East,84,3.0,4.0,61,0.00,,,0.00,0.000000,,2013-11-27 05:53:00,
2013-11-26 22:22:00,31.0,20.0,-100.00,ENE,70,6.0,7.0,62,0.00,,,0.00,0.000000,,2013-11-27 06:22:00,
2013-11-26 22:32:00,31.0,20.0,-100.00,ENE,70,6.0,7.0,62,0.00,,,0.00,0.000000,,2013-11-27 06:32:00,
2013-11-26 22:42:00,31.0,20.0,-100.00,ENE,70,6.0,7.0,62,0.00,,,0.00,0.000000,,2013-11-27 06:42:00,
2013-11-26 22:52:00,31.0,20.0,-100.00,ENE,70,6.0,7.0,62,0.00,,,0.00,0.000000,,2013-11-27 06:52:00,
2013-11-26 23:22:00,32.0,20.0,-100.00,NE,53,5.0,8.0,61,0.00,,,0.00,0.000000,,2013-11-27 07:22:00,
2013-11-26 23:32:00,32.0,20.0,-100.00,NE,53,5.0,8.0,61,0.00,,,0.00,0.000000,,2013-11-27 07:32:00,
2013-11-26 23:42:00,32.0,20.0,-100.00,NE,53,5.0,8.0,61,0.00,,,0.00,0.000000,,2013-11-27 07:42:00,
2013-11-26 23:52:00,32.0,20.0,-100.00,NE,53,5.0,8.0,61,0.00,,,0.00,0.000000,,2013-11-27 07:52:00,